Time;durP1;ratioP1;P1;durP2;ratioP2;P2;SDS_P1;SDS_P2;PMS_P1;PMS_P2;Temp;Humidity;BMP_temperature;BMP_pressure;BME280_temperature;BME280_humidity;BME280_pressure;Samples;Min_cycle;Max_cycle;Signal;HPM_P1;HPM_P2
2021/11/22 00:02:10;;;;;;;21.93;14.73;;;;;;;;;;5109311;28;20452;-92
2021/11/22 00:04:37;;;;;;;19.47;12.13;;;;;;;;;;5097447;28;20516;-95
2021/11/22 00:07:04;;;;;;;28.50;19.50;;;;;;;;;;5113963;28;20446;-94
2021/11/22 00:09:33;;;;;;;30.80;22.93;;;;;;;;;;5116297;28;20448;-92
2021/11/22 00:12:00;;;;;;;25.87;15.23;;;;;;;;;;5108331;28;20823;-93
2021/11/22 00:14:28;;;;;;;22.73;14.87;;;;;;;;;;5094969;28;20452;-91
2021/11/22 00:16:55;;;;;;;20.17;14.27;;;;;;;;;;5115125;28;20480;-96
2021/11/22 00:19:22;;;;;;;17.80;12.80;;;;;;;;;;5099752;28;20461;-92
2021/11/22 00:21:51;;;;;;;20.97;13.43;;;;;;;;;;5117486;28;20457;-93
2021/11/22 00:24:21;;;;;;;26.40;13.13;;;4.10;99.90;;;;;;5117242;28;20455;-94
2021/11/22 00:26:53;;;;;;;17.93;12.57;;;4.10;99.90;;;;;;5108772;28;20540;-94
2021/11/22 00:29:20;;;;;;;17.10;12.60;;;;;;;;;;5095813;28;20464;-93
2021/11/22 00:31:54;;;;;;;23.13;12.80;;;;;;;;;;5094103;28;20559;-94
2021/11/22 00:34:27;;;;;;;18.53;12.53;;;;;;;;;;5093696;28;20446;-92
2021/11/22 00:36:58;;;;;;;22.93;12.93;;;4.10;99.90;;;;;;5004277;28;20925;-94
2021/11/22 00:39:25;;;;;;;19.67;13.10;;;;;;;;;;5034447;28;20459;-94
2021/11/22 00:41:54;;;;;;;22.30;12.80;;;4.10;99.90;;;;;;5036304;28;20437;-92
2021/11/22 00:44:21;;;;;;;19.40;13.37;;;;;;;;;;5030582;28;20455;-93
2021/11/22 00:46:48;;;;;;;19.13;12.83;;;;;;;;;;5035389;28;20432;-95
2021/11/22 00:49:15;;;;;;;16.50;11.27;;;;;;;;;;5036398;28;20446;-94
2021/11/22 00:51:42;;;;;;;19.60;13.70;;;;;;;;;;5034881;28;20467;-93
2021/11/22 00:54:09;;;;;;;18.20;12.40;;;;;;;;;;5036047;28;20466;-94
2021/11/22 00:56:36;;;;;;;16.67;11.70;;;;;;;;;;5035903;28;20494;-93
2021/11/22 00:59:05;;;;;;;20.40;13.10;;;;;;;;;;5034454;28;20446;-92
2021/11/22 01:01:32;;;;;;;20.63;12.63;;;;;;;;;;5035362;28;20450;-94
2021/11/22 01:03:59;;;;;;;17.50;12.43;;;;;;;;;;5036123;28;20804;-93
2021/11/22 01:06:26;;;;;;;19.33;12.37;;;;;;;;;;5035984;28;20471;-93
2021/11/22 01:08:53;;;;;;;19.80;12.67;;;;;;;;;;5030869;28;20452;-95
2021/11/22 01:11:20;;;;;;;29.20;13.50;;;;;;;;;;5034589;28;20456;-93
2021/11/22 01:13:48;;;;;;;20.10;12.67;;;;;;;;;;5035266;28;20478;-93
2021/11/22 01:16:16;;;;;;;19.67;12.63;;;4.20;99.90;;;;;;5035161;28;20512;-93
2021/11/22 01:18:43;;;;;;;19.90;13.20;;;;;;;;;;5035543;28;20956;-94
2021/11/22 01:21:10;;;;;;;22.90;13.87;;;;;;;;;;5035265;28;20444;-93
2021/11/22 01:23:37;;;;;;;17.80;12.20;;;;;;;;;;5035721;28;20454;-94
2021/11/22 01:26:05;;;;;;;22.07;13.77;;;;;;;;;;5033431;28;20462;-94
2021/11/22 01:28:32;;;;;;;21.60;13.10;;;;;;;;;;5034222;28;20483;-93
2021/11/22 01:30:59;;;;;;;24.43;14.30;;;;;;;;;;5035081;28;20435;-94
2021/11/22 01:33:27;;;;;;;20.60;13.00;;;4.20;99.90;;;;;;5034001;28;20451;-94
2021/11/22 01:35:56;;;;;;;19.93;13.10;;;4.10;99.90;;;;;;5035363;28;20501;-93
2021/11/22 01:38:23;;;;;;;23.90;15.20;;;;;;;;;;5033763;28;20497;-92
2021/11/22 01:40:50;;;;;;;21.93;14.70;;;;;;;;;;5030136;28;20458;-94
2021/11/22 01:43:17;;;;;;;22.70;14.83;;;;;;;;;;5035294;28;20462;-92
2021/11/22 01:45:45;;;;;;;21.93;14.30;;;4.20;99.90;;;;;;5034475;28;20465;-93
2021/11/22 01:48:12;;;;;;;23.83;14.60;;;;;;;;;;5028634;28;20455;-93
2021/11/22 01:50:42;;;;;;;20.70;14.30;;;4.20;99.90;;;;;;5034841;28;20826;-94
2021/11/22 01:53:09;;;;;;;25.10;14.07;;;;;;;;;;5035173;28;20450;-92
2021/11/22 01:55:36;;;;;;;24.80;15.40;;;;;;;;;;5034676;28;20517;-92
2021/11/22 01:58:04;;;;;;;21.50;14.73;;;4.10;99.90;;;;;;5034832;28;20445;-93
2021/11/22 02:00:33;;;;;;;23.03;14.20;;;4.20;99.90;;;;;;5033471;28;20455;-94
2021/11/22 02:03:01;;;;;;;24.83;15.30;;;4.10;99.90;;;;;;5033388;28;20459;-93
2021/11/22 02:05:29;;;;;;;19.80;13.60;;;;;;;;;;5030734;28;21037;-93
2021/11/22 02:07:57;;;;;;;23.90;13.10;;;4.10;99.90;;;;;;5034919;28;20456;-92
2021/11/22 02:10:25;;;;;;;21.60;14.40;;;;;;;;;;5034971;28;20950;-93
2021/11/22 02:12:53;;;;;;;19.30;13.37;;;4.10;99.90;;;;;;5033240;28;20462;-93
2021/11/22 02:15:20;;;;;;;21.17;14.03;;;;;;;;;;5034711;28;20485;-93
2021/11/22 02:17:49;;;;;;;21.30;14.00;;;4.10;99.90;;;;;;5032175;28;20503;-92
2021/11/22 02:20:20;;;;;;;21.33;12.90;;;;;;;;;;5034490;28;20447;-92
2021/11/22 02:22:49;;;;;;;23.07;14.00;;;4.10;99.90;;;;;;5033311;28;20466;-94
2021/11/22 02:25:19;;;;;;;20.73;12.73;;;4.20;99.90;;;;;;5030773;28;20443;-93
2021/11/22 02:27:47;;;;;;;23.23;14.20;;;4.10;99.90;;;;;;5034388;28;20505;-93
2021/11/22 02:30:16;;;;;;;26.40;14.97;;;4.20;99.90;;;;;;5029746;28;20993;-95
2021/11/22 02:32:44;;;;;;;23.67;14.90;;;4.20;99.90;;;;;;5034042;28;20443;-92
2021/11/22 02:35:15;;;;;;;21.27;12.77;;;4.10;99.90;;;;;;5030740;28;20442;-93
2021/11/22 02:37:44;;;;;;;28.40;15.30;;;;;;;;;;5032682;28;20490;-95
2021/11/22 02:40:11;;;;;;;24.03;16.07;;;;;;;;;;5034392;28;20451;-94
2021/11/22 02:42:41;;;;;;;23.70;13.97;;;;;;;;;;5034495;28;20446;-94
2021/11/22 02:45:09;;;;;;;23.07;13.80;;;;;;;;;;5032905;28;20519;-95
2021/11/22 02:47:36;;;;;;;21.67;14.40;;;;;;;;;;5033886;28;20817;-93
2021/11/22 02:50:05;;;;;;;20.90;12.20;;;4.10;99.90;;;;;;5034087;28;20447;-93
2021/11/22 02:52:32;;;;;;;25.90;13.53;;;;;;;;;;5034114;28;20453;-94
2021/11/22 02:55:00;;;;;;;23.70;13.33;;;4.10;99.90;;;;;;5034416;28;20925;-92
2021/11/22 02:57:27;;;;;;;22.73;13.60;;;;;;;;;;5032909;28;20498;-94
2021/11/22 02:59:54;;;;;;;21.90;13.17;;;;;;;;;;5034713;28;20451;-94
2021/11/22 03:02:22;;;;;;;24.13;13.83;;;;;;;;;;5034054;28;20493;-93
2021/11/22 03:04:49;;;;;;;21.93;14.03;;;;;;;;;;5034552;28;20447;-93
2021/11/22 03:07:16;;;;;;;24.17;13.23;;;;;;;;;;5034694;28;20438;-93
2021/11/22 03:09:43;;;;;;;27.10;15.07;;;;;;;;;;5033891;28;20443;-92
2021/11/22 03:12:13;;;;;;;25.73;14.10;;;4.10;99.90;;;;;;5033347;28;20467;-94
2021/11/22 03:14:40;;;;;;;23.47;14.00;;;;;;;;;;5033900;28;20455;-94
2021/11/22 03:17:08;;;;;;;23.20;13.23;;;;;;;;;;5034214;28;20480;-94
2021/11/22 03:19:35;;;;;;;23.10;13.87;;;;;;;;;;5041265;28;20462;-94
2021/11/22 03:22:02;;;;;;;23.10;13.47;;;;;;;;;;5045987;28;20477;-94
2021/11/22 03:24:30;;;;;;;26.60;14.67;;;;;;;;;;5048414;28;20469;-93
2021/11/22 03:26:57;;;;;;;22.20;12.60;;;;;;;;;;5035249;28;20498;-94
2021/11/22 03:29:26;;;;;;;21.17;12.20;;;;;;;;;;5034321;28;20984;-94
2021/11/22 03:31:53;;;;;;;18.50;11.80;;;;;;;;;;5033435;28;20476;-93
2021/11/22 03:34:20;;;;;;;23.47;12.67;;;;;;;;;;5034070;28;20431;-94
2021/11/22 03:36:48;;;;;;;21.97;13.60;;;;;;;;;;5033699;28;20484;-93
2021/11/22 03:39:20;;;;;;;21.60;13.20;;;4.10;99.90;;;;;;5033782;28;20430;-95
2021/11/22 03:41:47;;;;;;;23.20;13.83;;;;;;;;;;5033837;28;20510;-94
2021/11/22 03:44:14;;;;;;;20.83;13.43;;;;;;;;;;5033463;28;20441;-94
2021/11/22 03:46:46;;;;;;;23.23;13.43;;;4.10;99.90;;;;;;5033593;28;20447;-95
2021/11/22 03:49:13;;;;;;;21.00;13.07;;;;;;;;;;5033944;28;20449;-94
2021/11/22 03:51:40;;;;;;;22.80;13.10;;;;;;;;;;5034055;28;20466;-95
2021/11/22 03:54:08;;;;;;;20.77;13.30;;;;;;;;;;5037457;28;20438;-93
2021/11/22 03:56:35;;;;;;;21.20;12.97;;;;;;;;;;5037839;28;20868;-93
2021/11/22 03:59:03;;;;;;;22.00;13.60;;;;;;;;;;5036913;28;20431;-95
2021/11/22 04:01:30;;;;;;;22.70;14.07;;;;;;;;;;5036778;28;20462;-96
2021/11/22 04:03:58;;;;;;;25.30;13.30;;;;;;;;;;5037114;28;20442;-94
2021/11/22 04:06:26;;;;;;;22.50;12.73;;;;;;;;;;5036982;28;20466;-94
2021/11/22 04:08:53;;;;;;;23.90;14.47;;;;;;;;;;5032030;28;20477;-94
2021/11/22 04:11:21;;;;;;;24.17;12.40;;;;;;;;;;5037289;28;20438;-95
2021/11/22 04:13:48;;;;;;;22.97;14.37;;;;;;;;;;5032339;28;20458;-94
2021/11/22 04:16:15;;;;;;;19.23;11.27;;;4.20;99.90;;;;;;5036445;28;20905;-95
2021/11/22 04:18:43;;;;;;;20.90;12.40;;;;;;;;;;5034299;28;20445;-94
2021/11/22 04:21:12;;;;;;;19.67;11.50;;;;;;;;;;5037556;28;20450;-95
2021/11/22 04:23:39;;;;;;;19.57;11.40;;;;;;;;;;5037017;28;20454;-93
2021/11/22 04:26:10;;;;;;;16.80;11.27;;;;;;;;;;5037366;28;20473;-94
2021/11/22 04:28:37;;;;;;;16.17;10.40;;;;;;;;;;5034978;28;20499;-95
2021/11/22 04:31:04;;;;;;;19.20;12.13;;;4.20;99.90;;;;;;5036267;28;20545;-95
2021/11/22 04:33:32;;;;;;;14.33;10.53;;;;;;;;;;5035478;28;20441;-93
2021/11/22 04:36:00;;;;;;;19.13;11.50;;;4.10;99.90;;;;;;5036526;28;20454;-95
2021/11/22 04:38:29;;;;;;;15.13;10.67;;;;;;;;;;5032331;28;20493;-94
2021/11/22 04:40:56;;;;;;;15.03;10.53;;;;;;;;;;5036103;28;20838;-94
2021/11/22 04:43:23;;;;;;;16.43;10.90;;;;;;;;;;5036810;28;20455;-93
2021/11/22 04:45:50;;;;;;;17.13;10.60;;;;;;;;;;5036225;28;20457;-94
2021/11/22 04:48:18;;;;;;;17.73;10.43;;;;;;;;;;5036784;28;20933;-94
2021/11/22 04:50:45;;;;;;;15.03;11.03;;;;;;;;;;5037243;28;20458;-95
2021/11/22 04:53:12;;;;;;;19.60;11.37;;;;;;;;;;5035195;28;20953;-93
2021/11/22 04:55:41;;;;;;;15.83;9.30;;;;;;;;;;5037193;28;20953;-94
2021/11/22 04:58:09;;;;;;;15.60;10.10;;;;;;;;;;5036643;28;20835;-94
2021/11/22 05:00:37;;;;;;;17.43;11.20;;;4.20;99.90;;;;;;5036585;28;20507;-95
2021/11/22 05:03:04;;;;;;;16.50;10.60;;;;;;;;;;5035284;28;20466;-95
2021/11/22 05:05:31;;;;;;;17.97;11.67;;;;;;;;;;5035780;28;20492;-94
2021/11/22 05:08:01;;;;;;;17.03;10.13;;;;;;;;;;5033752;28;20435;-95
2021/11/22 05:10:30;;;;;;;16.17;10.23;;;;;;;;;;5038069;28;20931;-95
2021/11/22 05:12:59;;;;;;;18.00;10.27;;;;;;;;;;5033800;28;20458;-93
2021/11/22 05:15:26;;;;;;;16.73;11.47;;;;;;;;;;5038612;28;20465;-95
2021/11/22 05:17:54;;;;;;;17.07;10.93;;;;;;;;;;5038789;28;20486;-94
2021/11/22 05:20:21;;;;;;;17.40;10.30;;;;;;;;;;5038639;28;20458;-93
2021/11/22 05:22:49;;;;;;;19.70;11.57;;;;;;;;;;5039714;28;20462;-93
2021/11/22 05:25:18;;;;;;;14.07;9.10;;;;;;;;;;5040385;28;20493;-94
2021/11/22 05:27:45;;;;;;;14.70;9.40;;;;;;;;;;5039702;28;20484;-95
2021/11/22 05:30:14;;;;;;;18.50;11.03;;;;;;;;;;5040355;28;20458;-94
2021/11/22 05:32:42;;;;;;;15.83;10.43;;;;;;;;;;5040921;28;20871;-94
2021/11/22 05:35:09;;;;;;;14.67;8.60;;;;;;;;;;5040405;28;20451;-95
2021/11/22 05:37:36;;;;;;;15.67;10.30;;;;;;;;;;5039317;28;20482;-96
2021/11/22 05:40:05;;;;;;;13.70;9.20;;;4.30;99.90;;;;;;5037313;28;20459;-94
2021/11/22 05:42:32;;;;;;;14.03;9.00;;;;;;;;;;5033523;28;20439;-93
2021/11/22 05:44:59;;;;;;;14.17;9.73;;;;;;;;;;5036659;28;20933;-94
2021/11/22 05:47:28;;;;;;;17.90;9.80;;;;;;;;;;5036308;28;20461;-95
2021/11/22 05:50:03;;;;;;;16.63;9.77;;;;;;;;;;5035464;28;20463;-93
2021/11/22 05:52:30;;;;;;;15.00;9.03;;;;;;;;;;5035944;28;20452;-95
2021/11/22 05:54:58;;;;;;;15.40;9.20;;;;;;;;;;5035203;28;20435;-95
2021/11/22 05:57:26;;;;;;;14.33;9.00;;;;;;;;;;5035677;28;20992;-95
2021/11/22 05:59:53;;;;;;;13.17;9.10;;;;;;;;;;5035410;28;20430;-95
2021/11/22 06:02:20;;;;;;;14.90;9.37;;;;;;;;;;5035783;28;20956;-94
2021/11/22 06:04:49;;;;;;;14.90;8.87;;;;;;;;;;5038319;28;20462;-94
2021/11/22 06:07:16;;;;;;;12.37;8.70;;;;;;;;;;5039258;28;20466;-96
2021/11/22 06:09:43;;;;;;;13.53;8.10;;;;;;;;;;5039614;28;20462;-95
2021/11/22 06:12:11;;;;;;;15.47;10.10;;;;;;;;;;5041680;28;20447;-94
2021/11/22 06:14:38;;;;;;;13.57;9.17;;;;;;;;;;5040571;28;20466;-93
2021/11/22 06:17:05;;;;;;;13.80;8.43;;;;;;;;;;5040153;28;20469;-94
2021/11/22 06:19:33;;;;;;;16.27;10.07;;;;;;;;;;5041404;28;20470;-94
2021/11/22 06:22:01;;;;;;;16.37;9.87;;;;;;;;;;5042040;28;20506;-95
2021/11/22 06:24:31;;;;;;;14.43;8.40;;;;;;;;;;5047466;28;20461;-95
2021/11/22 06:26:58;;;;;;;13.90;8.90;;;;;;;;;;5066450;22;20492;-93
2021/11/22 06:29:26;;;;;;;11.87;8.50;;;4.30;99.90;;;;;;5071242;28;20447;-95
2021/11/22 06:31:54;;;;;;;13.93;9.50;;;;;;;;;;5066463;28;20535;-93
2021/11/22 06:34:21;;;;;;;18.50;11.17;;;;;;;;;;5069821;28;20436;-92
2021/11/22 06:36:53;;;;;;;12.17;8.30;;;4.30;99.90;;;;;;5070099;28;20446;-93
2021/11/22 06:39:44;;;;;;;16.13;9.30;;;4.30;99.90;;;;;;5075836;28;20461;-93
2021/11/22 06:42:11;;;;;;;16.30;10.63;;;;;;;;;;5043805;28;20521;-92
2021/11/22 06:44:41;;;;;;;15.50;9.00;;;;;;;;;;5075203;28;20490;-94
2021/11/22 06:47:11;;;;;;;14.37;9.40;;;;;;;;;;5076243;28;20493;-95
2021/11/22 06:54:59;;;;;;;13.30;8.47;;;;;;;;;;5002528;28;20474;-94
2021/11/22 06:57:28;;;;;;;15.50;10.17;;;;;;;;;;5015150;22;20488;-94
2021/11/22 06:59:56;;;;;;;15.33;8.47;;;;;;;;;;5021730;28;20456;-94
2021/11/22 07:02:28;;;;;;;17.13;10.37;;;;;;;;;;5025001;28;20460;-95
2021/11/22 07:04:56;;;;;;;14.07;9.20;;;;;;;;;;5012120;28;20459;-94
2021/11/22 07:10:14;;;;;;;14.30;8.93;;;;;;;;;;5006345;28;20547;-94
2021/11/22 07:12:42;;;;;;;17.60;9.03;;;;;;;;;;5010417;28;20453;-95
2021/11/22 07:15:11;;;;;;;16.77;9.17;;;;;;;;;;5005234;28;20462;-93
2021/11/22 07:17:39;;;;;;;15.73;8.20;;;;;;;;;;5009812;28;20488;-94
2021/11/22 07:20:10;;;;;;;11.33;6.63;;;;;;;;;;5014567;28;20438;-93
2021/11/22 07:22:38;;;;;;;12.30;7.40;;;;;;;;;;5013783;28;21431;-95
2021/11/22 07:25:05;;;;;;;13.90;7.70;;;;;;;;;;5082724;23;20502;-92
2021/11/22 07:30:21;;;;;;;12.17;7.50;;;;;;;;;;5061396;28;20989;-92
2021/11/22 07:32:52;;;;;;;12.13;7.70;;;;;;;;;;5048713;28;20445;-95
2021/11/22 07:35:19;;;;;;;9.30;6.23;;;;;;;;;;5059983;28;20450;-93
2021/11/22 07:37:48;;;;;;;11.10;7.53;;;;;;;;;;5062684;28;20533;-92
2021/11/22 07:40:15;;;;;;;10.13;6.60;;;;;;;;;;5051065;28;20456;-92
2021/11/22 07:42:44;;;;;;;9.73;6.60;;;;;;;;;;5048374;28;20442;-92
2021/11/22 07:45:11;;;;;;;13.93;8.50;;;;;;;;;;5056830;28;20464;-91
2021/11/22 07:47:38;;;;;;;12.40;8.53;;;;;;;;;;5061169;28;20443;-91
2021/11/22 07:50:06;;;;;;;12.90;7.17;;;4.60;99.90;;;;;;5068620;28;20430;-91
2021/11/22 07:52:42;;;;;;;11.73;7.40;;;;;;;;;;5056360;28;20436;-93
2021/11/22 07:55:09;;;;;;;12.50;7.93;;;;;;;;;;5063253;28;20590;-91
2021/11/22 07:57:37;;;;;;;11.80;8.00;;;;;;;;;;5059566;28;20452;-93
2021/11/22 08:00:23;;;;;;;14.40;9.47;;;;;;;;;;5061854;28;20445;-95
2021/11/22 08:02:52;;;;;;;11.60;8.30;;;;;;;;;;5060392;28;20472;-93
2021/11/22 08:05:20;;;;;;;14.87;9.10;;;4.70;99.90;;;;;;5060090;28;20461;-93
2021/11/22 08:07:48;;;;;;;13.53;8.57;;;;;;;;;;5058011;28;20457;-93
2021/11/22 08:13:02;;;;;;;10.83;7.60;;;4.80;99.90;;;;;;5060400;28;20471;-94
2021/11/22 08:15:32;;;;;;;12.50;7.00;;;4.70;99.90;;;;;;5055699;28;20487;-94
2021/11/22 08:18:22;;;;;;;9.17;7.03;;;4.80;99.90;;;;;;5046508;28;20491;-94
2021/11/22 08:20:54;;;;;;;8.37;6.80;;;;;;;;;;5053365;23;20487;-93
2021/11/22 08:23:23;;;;;;;10.10;7.20;;;;;;;;;;5060667;23;20588;-89
2021/11/22 08:25:50;;;;;;;11.60;7.37;;;;;;;;;;5044959;28;20470;-95
2021/11/22 08:28:18;;;;;;;7.83;6.33;;;;;;;;;;5037130;28;20886;-93
2021/11/22 08:30:45;;;;;;;9.20;6.57;;;4.80;99.90;;;;;;5038947;28;20450;-89
2021/11/22 08:33:15;;;;;;;12.63;6.20;;;;;;;;;;5038544;28;20455;-91
2021/11/22 08:35:43;;;;;;;8.97;6.47;;;4.80;99.90;;;;;;5036319;28;20462;-90
2021/11/22 08:38:12;;;;;;;7.67;5.77;;;;;;;;;;5042051;28;20483;-90
2021/11/22 08:43:05;;;;;;;11.10;7.80;;;;;;;;;;5130316;23;20494;-89
2021/11/22 08:45:32;;;;;;;13.03;7.40;;;;;;;;;;5019359;28;20206;-85
2021/11/22 08:48:01;;;;;;;11.17;6.50;;;;;;;;;;5018109;28;20460;-92
2021/11/22 08:50:28;;;;;;;8.50;6.20;;;;;;;;;;5036455;23;20407;-90
2021/11/22 08:52:57;;;;;;;14.83;6.60;;;5.00;99.90;;;;;;4977610;28;21078;-91
2021/11/22 08:55:24;;;;;;;8.00;5.60;;;5.00;99.90;;;;;;4984001;28;20456;-91
2021/11/22 08:57:52;;;;;;;12.50;7.53;;;;;;;;;;4984981;28;20440;-89
2021/11/22 09:02:53;;;;;;;8.03;6.20;;;;;;;;;;5135217;23;20491;-88
2021/11/22 09:05:20;;;;;;;9.27;6.23;;;;;;;;;;5045274;28;20200;-89
2021/11/22 09:07:47;;;;;;;9.50;6.70;;;;;;;;;;5023228;28;20529;-91
2021/11/22 09:10:16;;;;;;;9.63;7.90;;;4.90;99.90;;;;;;5036605;28;20439;-91
2021/11/22 09:12:43;;;;;;;13.37;7.07;;;;;;;;;;5036349;28;20439;-91
2021/11/22 09:15:10;;;;;;;9.10;6.43;;;;;;;;;;5034803;28;20797;-92
2021/11/22 09:17:38;;;;;;;11.67;7.00;;;;;;;;;;5039089;28;20482;-91
2021/11/22 09:20:08;;;;;;;10.47;6.50;;;5.20;99.90;;;;;;5039446;28;20487;-90
2021/11/22 09:22:35;;;;;;;12.57;7.30;;;;;;;;;;5034052;28;20461;-93
2021/11/22 09:25:04;;;;;;;15.13;8.57;;;;;;;;;;5017586;28;20472;-90
2021/11/22 09:27:33;;;;;;;9.67;7.57;;;5.30;99.90;;;;;;5017103;28;20491;-89
2021/11/22 09:30:00;;;;;;;9.33;7.30;;;;;;;;;;5017348;28;20445;-91
2021/11/22 09:32:27;;;;;;;12.67;7.40;;;;;;;;;;5015029;28;20451;-91
2021/11/22 09:34:54;;;;;;;13.47;8.10;;;;;;;;;;5015278;28;20444;-90
2021/11/22 09:37:21;;;;;;;9.37;7.40;;;;;;;;;;5014951;28;20439;-89
2021/11/22 09:39:48;;;;;;;8.90;6.37;;;;;;;;;;5015416;28;20499;-90
2021/11/22 09:42:15;;;;;;;8.20;6.73;;;;;;;;;;5015485;28;20459;-91
2021/11/22 09:44:44;;;;;;;11.60;7.60;;;5.20;99.90;;;;;;5016051;28;20436;-91
2021/11/22 09:47:11;;;;;;;14.50;8.63;;;;;;;;;;5032053;28;20464;-91
2021/11/22 09:49:38;;;;;;;11.60;7.63;;;;;;;;;;5033767;28;20451;-91
2021/11/22 09:52:05;;;;;;;9.43;7.67;;;;;;;;;;5035096;28;20898;-91
2021/11/22 09:54:32;;;;;;;11.10;6.97;;;;;;;;;;5034175;28;20454;-88
2021/11/22 09:57:00;;;;;;;14.43;9.07;;;;;;;;;;5033556;28;20444;-90
2021/11/22 09:59:27;;;;;;;13.40;7.33;;;;;;;;;;5035192;28;20491;-93
2021/11/22 10:01:57;;;;;;;11.87;8.57;;;5.30;99.90;;;;;;5034473;28;20486;-92
2021/11/22 10:04:29;;;;;;;12.83;8.10;;;5.30;99.90;;;;;;5035401;28;20465;-90
2021/11/22 10:06:58;;;;;;;10.87;7.53;;;5.30;99.90;;;;;;5034315;28;20450;-89
2021/11/22 10:09:43;;;;;;;11.43;7.90;;;5.40;99.90;;;;;;5034937;28;20455;-90
2021/11/22 10:12:14;;;;;;;19.00;8.00;;;5.40;99.90;;;;;;5033689;28;20486;-90
2021/11/22 10:14:42;;;;;;;12.07;7.80;;;5.40;99.90;;;;;;5034018;28;20477;-92
2021/11/22 10:17:27;;;;;;;12.83;7.70;;;5.40;99.90;;;;;;5033128;28;20469;-91
2021/11/22 10:20:19;;;;;;;12.17;7.57;;;5.40;99.90;;;;;;5031770;28;20502;-91
2021/11/22 10:22:51;;;;;;;11.80;7.80;;;5.50;99.90;;;;;;5032709;28;20533;-89
2021/11/22 10:25:24;;;;;;;14.10;8.47;;;5.50;99.90;;;;;;5033661;28;20487;-90
2021/11/22 10:27:52;;;;;;;14.27;8.03;;;5.60;99.90;;;;;;5033810;28;20908;-89
2021/11/22 10:30:22;;;;;;;13.20;8.17;;;5.60;99.90;;;;;;5036742;28;20463;-93
2021/11/22 10:32:53;;;;;;;15.33;8.20;;;5.70;99.90;;;;;;5037076;28;20457;-92
2021/11/22 10:35:21;;;;;;;11.43;7.40;;;;;;;;;;5034236;28;20462;-92
2021/11/22 10:38:01;;;;;;;13.73;9.27;;;5.70;99.90;;;;;;5032904;28;20434;-92
2021/11/22 10:40:31;;;;;;;13.50;7.23;;;6.00;99.90;;;;;;5033922;28;21002;-91
2021/11/22 10:42:59;;;;;;;11.60;8.40;;;;;;;;;;5037497;28;20840;-93
2021/11/22 10:45:32;;;;;;;11.63;8.00;;;5.80;99.90;;;;;;5032345;28;20445;-91
2021/11/22 10:48:21;;;;;;;13.30;9.00;;;5.90;99.90;;;;;;5033756;28;20459;-92
2021/11/22 10:50:55;;;;;;;11.07;7.60;;;5.70;99.90;;;;;;5034183;28;20491;-91
2021/11/22 10:53:31;;;;;;;18.30;8.77;;;6.00;99.90;;;;;;5033087;28;20881;-89
2021/11/22 10:55:58;;;;;;;12.87;8.17;;;;;;;;;;5033740;28;20447;-91
2021/11/22 10:58:46;;;;;;;10.87;7.90;;;6.10;99.90;;;;;;5033834;28;20439;-91
2021/11/22 11:01:14;;;;;;;14.83;8.50;;;6.20;99.90;;;;;;5035826;28;20470;-93
2021/11/22 11:03:50;;;;;;;17.37;8.50;;;6.20;99.90;;;;;;5037883;28;20433;-91
2021/11/22 11:06:18;;;;;;;12.17;8.97;;;6.30;99.90;;;;;;5032637;28;20466;-92
2021/11/22 11:08:45;;;;;;;10.43;7.23;;;;;;;;;;5038193;28;20451;-91
2021/11/22 11:11:14;;;;;;;16.40;9.30;;;6.20;99.90;;;;;;5038048;28;20455;-91
2021/11/22 11:13:46;;;;;;;14.03;8.20;;;6.10;99.90;;;;;;5036326;28;20454;-92
2021/11/22 11:16:13;;;;;;;23.20;7.97;;;;;;;;;;5037304;28;20450;-92
2021/11/22 11:18:40;;;;;;;8.67;6.70;;;;;;;;;;5037445;28;20498;-93
2021/11/22 11:21:09;;;;;;;13.13;7.00;;;6.10;99.90;;;;;;5037317;28;20517;-91
2021/11/22 11:23:36;;;;;;;11.00;7.30;;;;;;;;;;5038021;28;20454;-90
2021/11/22 11:26:03;;;;;;;9.40;7.33;;;;;;;;;;5036493;28;20451;-91
2021/11/22 11:28:30;;;;;;;11.33;7.80;;;6.10;99.90;;;;;;5033858;28;20658;-92
2021/11/22 11:30:57;;;;;;;16.63;7.27;;;;;;;;;;5035461;28;20505;-95
2021/11/22 11:33:26;;;;;;;13.37;7.67;;;6.00;99.90;;;;;;5038984;28;20466;-92
2021/11/22 11:36:01;;;;;;;8.47;7.40;;;5.90;99.90;;;;;;5033163;28;20446;-91
2021/11/22 11:38:38;;;;;;;11.40;7.50;;;5.90;99.90;;;;;;5017178;28;20490;-92
2021/11/22 11:41:12;;;;;;;10.00;7.13;;;5.80;99.90;;;;;;5017265;28;20439;-91
2021/11/22 11:43:57;;;;;;;13.07;8.13;;;5.90;99.90;;;;;;5021064;28;20463;-89
2021/11/22 11:46:48;;;;;;;10.03;6.50;;;5.80;99.90;;;;;;5017775;28;20520;-90
2021/11/22 11:49:26;;;;;;;10.23;7.60;;;;;;;;;;5018260;28;20498;-93
2021/11/22 11:52:22;;;;;;;11.43;8.47;;;;;;;;;;5019329;28;20494;-90
2021/11/22 11:57:44;;;;;;;19.43;12.67;;;;;;;;;;5017411;28;20451;-92
2021/11/22 12:00:23;;;;;;;19.87;14.10;;;5.80;99.90;;;;;;5020081;28;20484;-90
2021/11/22 12:02:59;;;;;;;19.03;13.10;;;;;;;;;;5024404;28;20544;-92
2021/11/22 12:05:44;;;;;;;17.30;12.67;;;5.90;99.90;;;;;;5025149;28;20458;-91
2021/11/22 12:08:22;;;;;;;11.60;9.30;;;5.90;99.90;;;;;;5023793;28;20455;-92
2021/11/22 12:10:51;;;;;;;12.50;9.50;;;5.90;99.90;;;;;;5026706;28;20449;-92
2021/11/22 12:13:18;;;;;;;10.97;7.20;;;;;;;;;;5018808;28;20518;-91
2021/11/22 12:15:47;;;;;;;14.80;9.90;;;5.90;99.90;;;;;;5021681;28;20936;-91
2021/11/22 12:18:24;;;;;;;10.73;7.50;;;5.90;99.90;;;;;;5020354;28;20442;-90
2021/11/22 12:21:06;;;;;;;10.00;7.50;;;5.80;99.90;;;;;;5020858;28;20472;-91
2021/11/22 12:23:45;;;;;;;22.00;8.47;;;5.80;99.90;;;;;;5011396;28;20464;-93
2021/11/22 12:26:16;;;;;;;9.47;7.50;;;5.80;99.90;;;;;;5007595;28;20449;-92
2021/11/22 12:28:52;;;;;;;12.13;8.17;;;5.70;99.90;;;;;;5003623;28;20460;-92
2021/11/22 12:31:31;;;;;;;9.73;7.43;;;5.70;99.90;;;;;;4998825;28;20458;-92
2021/11/22 12:34:01;;;;;;;11.60;6.57;;;5.60;99.90;;;;;;4999270;28;20464;-91
2021/11/22 12:37:02;;;;;;;10.07;7.47;;;5.60;99.90;;;;;;5010071;28;20514;-91
2021/11/22 12:39:30;;;;;;;15.17;9.80;;;;;;;;;;5008527;28;20496;-94
2021/11/22 12:42:21;;;;;;;15.93;8.93;;;5.60;99.90;;;;;;5007511;28;20448;-93
2021/11/22 12:45:05;;;;;;;6.37;5.50;;;5.60;99.90;;;;;;5000683;28;20451;-92
2021/11/22 12:47:32;;;;;;;10.83;6.67;;;;;;;;;;5001022;28;20519;-89
2021/11/22 12:50:15;;;;;;;10.80;6.93;;;5.60;99.90;;;;;;5004189;28;20512;-91
2021/11/22 12:52:42;;;;;;;8.70;6.40;;;5.60;99.90;;;;;;5002949;28;20444;-88
2021/11/22 12:55:17;;;;;;;8.50;6.80;;;5.60;99.90;;;;;;5001222;28;20459;-90
2021/11/22 12:57:48;;;;;;;7.80;5.93;;;5.60;99.90;;;;;;5001032;28;20448;-92
2021/11/22 13:00:22;;;;;;;8.40;6.50;;;5.60;99.90;;;;;;5000597;28;20492;-92
2021/11/22 13:02:51;;;;;;;10.07;6.73;;;5.60;99.90;;;;;;5019340;28;20479;-94
2021/11/22 13:06:01;;;;;;;7.00;6.30;;;5.50;99.90;;;;;;5021547;28;20457;-91
2021/11/22 13:08:42;;;;;;;9.53;6.73;;;5.60;99.90;;;;;;5027555;28;20459;-90
2021/11/22 13:14:16;;;;;;;9.80;6.60;;;5.60;99.90;;;;;;5025784;28;20546;-91
2021/11/22 13:16:43;;;;;;;14.97;9.57;;;;;;;;;;5016727;28;20492;-88
2021/11/22 13:19:16;;;;;;;11.03;8.33;;;5.70;99.90;;;;;;5017256;28;20925;-88
2021/11/22 13:21:50;;;;;;;11.00;7.23;;;5.70;99.90;;;;;;5025457;28;20472;-89
2021/11/22 13:24:20;;;;;;;7.20;6.13;;;5.60;99.90;;;;;;5023113;28;20456;-89
2021/11/22 13:26:47;;;;;;;11.40;5.80;;;;;;;;;;5025419;28;20444;-89
2021/11/22 13:29:17;;;;;;;10.50;7.37;;;5.60;99.90;;;;;;5027493;28;20457;-89
2021/11/22 13:31:47;;;;;;;9.27;6.50;;;5.60;99.90;;;;;;5026253;28;20459;-89
2021/11/22 13:34:17;;;;;;;10.13;6.73;;;5.60;99.90;;;;;;5023036;28;21159;-88
2021/11/22 13:36:50;;;;;;;6.00;5.23;;;5.60;99.90;;;;;;5021244;28;20456;-89
2021/11/22 13:39:21;;;;;;;6.80;5.50;;;5.50;99.90;;;;;;5020871;28;20469;-91
2021/11/22 13:42:00;;;;;;;13.33;11.23;;;5.50;99.90;;;;;;5017113;28;20463;-93
2021/11/22 13:44:31;;;;;;;11.23;8.57;;;5.50;99.90;;;;;;5023488;28;20467;-92
2021/11/22 13:47:03;;;;;;;9.57;6.43;;;5.50;99.90;;;;;;5030291;28;20463;-89
2021/11/22 13:49:31;;;;;;;9.17;6.30;;;;;;;;;;5040968;28;20466;-92
2021/11/22 13:51:58;;;;;;;6.17;5.30;;;;;;;;;;5039131;28;20498;-88
2021/11/22 13:54:27;;;;;;;10.83;6.00;;;5.60;99.90;;;;;;5038210;28;20459;-89
2021/11/22 13:56:57;;;;;;;6.70;6.00;;;5.50;99.90;;;;;;5038459;28;20818;-93
2021/11/22 13:59:27;;;;;;;8.30;7.20;;;5.60;99.90;;;;;;5035820;28;20458;-92
2021/11/22 14:01:57;;;;;;;7.50;5.70;;;5.60;99.90;;;;;;5029992;28;20517;-88
2021/11/22 14:04:26;;;;;;;9.43;6.00;;;5.50;99.90;;;;;;5034725;28;21092;-89
2021/11/22 14:06:53;;;;;;;7.77;5.67;;;;;;;;;;5028566;28;20448;-91
2021/11/22 14:09:22;;;;;;;7.13;6.43;;;5.40;99.90;;;;;;5020347;28;20448;-94
2021/11/22 14:11:52;;;;;;;8.57;5.70;;;5.40;99.90;;;;;;5017899;28;20457;-88
2021/11/22 14:14:20;;;;;;;9.40;6.20;;;5.40;99.90;;;;;;5022207;28;20527;-89
2021/11/22 14:16:50;;;;;;;8.33;7.50;;;5.50;99.90;;;;;;5047468;28;20430;-89
2021/11/22 14:19:19;;;;;;;8.63;6.23;;;5.40;99.90;;;;;;5046108;28;20440;-93
2021/11/22 14:21:46;;;;;;;8.57;6.30;;;;;;;;;;5034022;28;20539;-93
2021/11/22 14:24:15;;;;;;;10.73;5.73;;;5.60;99.90;;;;;;5037753;28;20452;-91